Piedmont, SD (57769)

10:28 AM MDT on October 21, 2014 (GMT -0600)
Elk Creek Village | Change Station
CLOSE
Current Station
Personal Weather Station
Location: Piedmont, SD
Elevation: 3576 ft
Nearby Weather Stations

Elev 3576 ft 44.24 °N, 103.40 °W | Updated 9 seconds ago

Clear
Clear
76.4 °F
Feels Like 78 °F
N
3.0
Wind Variable Wind from WSW
Gusts 6.0 mph

Today
High -- | Low -- °F
--% Chance of Precip.
Yesterday
High -- | Low -- °F
Precip. -- in
7:15 AM 5:58 PM
Waning Crescent, 5% visible
Pressure 29.79 in
Visibility 10.0 miles
Clouds Few 8000 ft
Heat Index 78 °F
Dew Point 46 °F
Humidity 34%
Rainfall 0.00 in
Snow Depth Not available.
UV 2 out of 12
Pollen 2.90 out of 12
Air Quality Not available.
Flu Activity Sporadic
METAR KRCA 211558Z 17007KT 10SM FEW080 18/07 A2983 RMK AO2A SLP088 T01840066 $

More Conditions Fewer Conditions

Pressure 29.79 in
Visibility 10.0 miles
Clouds Few 8000 ft
Heat Index 78 °F
Dew Point 46 °F
Humidity 34%
Rainfall 0.00 in
Snow Depth Not available.
UV 2 out of 12
Pollen 2.90 out of 12
Air Quality Not available.
Flu Activity Sporadic
METAR KRCA 211558Z 17007KT 10SM FEW080 18/07 A2983 RMK AO2A SLP088 T01840066 $

More Conditions Fewer Conditions

10-Day Weather Forecast

Almanac

Astronomy

Oct. 21, 2014 Rise Set
Actual Time 7:15 AM MDT 5:58 PM MDT
Civil Twilight 6:46 AM MDT 6:28 PM MDT
Nautical Twilight 6:12 AM MDT 7:02 PM MDT
Astronomical Twilight 5:38 AM MDT 7:35 PM MDT
Moon 4:57 AM MDT 4:58 PM MDT
Length of Visible Light 11h 42m
Length of Day
10h 43m
Tomorrow will be 2m 53s shorter.
Waning Crescent, 5% of the Moon is Illuminated
Today
Waning Crescent
Oct 23
New
Oct 30
First Quarter
Nov 6
Full
Nov 14
Last Quarter

Today's Extremes

State Highs State Lows

Community

WunderPhotos

Upload Photos

1,763,710 photos uploaded!

Nearby

Snow Depth

Station Depth Elevation
North Rapid Creek 0 in 6130 ft
Blind Park 0 in 6890 ft

Earthquake Activity

City Distance Mag. Time & Date
No recent earthquake activity has been reported nearby.
Minimum magnitude displayed is 2.5.

Coastal Water Temperatures

Place Temperature
No Stations Reporting

Nearby Weather Stations